createdAt,value
2018-05-17T00:00:29.079Z,10.10
2018-05-17T00:02:58.573Z,10.10
2018-05-17T00:05:26.116Z,11.20
2018-05-17T00:07:54.385Z,11.13
2018-05-17T00:10:22.664Z,10.60
2018-05-17T00:12:50.928Z,10.43
2018-05-17T00:15:18.427Z,11.50
2018-05-17T00:17:45.945Z,11.40
2018-05-17T00:20:14.319Z,12.90
2018-05-17T00:22:41.814Z,12.50
2018-05-17T00:25:09.326Z,15.47
2018-05-17T00:27:36.848Z,14.60
2018-05-17T00:30:04.345Z,12.87
2018-05-17T00:32:31.846Z,15.47
2018-05-17T00:35:02.314Z,14.30
2018-05-17T00:37:29.822Z,15.20
2018-05-17T00:39:57.318Z,14.73
2018-05-17T00:42:24.792Z,12.07
2018-05-17T00:44:52.333Z,11.83
2018-05-17T00:47:20.762Z,10.67
2018-05-17T00:49:49.094Z,10.93
2018-05-17T00:52:17.439Z,11.73
2018-05-17T00:54:44.881Z,11.37
2018-05-17T00:57:12.405Z,11.77
2018-05-17T00:59:39.927Z,10.90
2018-05-17T01:02:07.438Z,10.90
2018-05-17T01:04:35.715Z,10.43
2018-05-17T01:07:03.982Z,10.10
2018-05-17T01:09:31.502Z,10.30
2018-05-17T01:11:59.006Z,11.00
2018-05-17T01:14:27.270Z,12.13
2018-05-17T01:16:54.761Z,12.87
2018-05-17T01:19:22.351Z,11.60
2018-05-17T01:21:49.912Z,12.63
2018-05-17T01:24:17.410Z,13.67
2018-05-17T01:26:45.691Z,13.80
2018-05-17T01:29:13.964Z,13.63
2018-05-17T01:31:41.511Z,12.77
2018-05-17T01:34:08.998Z,14.07
2018-05-17T01:36:48.218Z,12.37
2018-05-17T01:39:15.758Z,12.83
2018-05-17T01:41:43.364Z,14.07
2018-05-17T01:44:10.935Z,13.87
2018-05-17T01:46:38.461Z,14.20
2018-05-17T01:49:06.740Z,14.10
2018-05-17T01:51:34.998Z,15.73
2018-05-17T01:54:03.281Z,14.33
2018-05-17T01:56:30.855Z,14.50
2018-05-17T01:58:59.348Z,15.00
2018-05-17T02:01:26.901Z,15.47
2018-05-17T02:03:54.447Z,16.97
2018-05-17T02:06:21.970Z,14.83
2018-05-17T02:08:49.481Z,15.13
2018-05-17T02:11:17.078Z,14.70
2018-05-17T02:13:45.268Z,19.73
2018-05-17T02:16:16.122Z,19.83
2018-05-17T02:18:44.370Z,18.77
2018-05-17T02:21:11.883Z,17.07
2018-05-17T02:23:39.379Z,16.07
2018-05-17T02:26:06.906Z,15.70
2018-05-17T02:28:34.421Z,17.53
2018-05-17T02:31:02.694Z,17.97
2018-05-17T02:33:31.363Z,17.10
2018-05-17T02:35:59.667Z,15.43
2018-05-17T02:38:27.244Z,16.17
2018-05-17T02:40:54.743Z,17.17
2018-05-17T02:43:22.250Z,17.80
2018-05-17T02:45:50.509Z,18.10
2018-05-17T02:48:18.810Z,19.80
2018-05-17T02:50:46.307Z,18.90
2018-05-17T02:53:13.839Z,18.00
2018-05-17T02:55:41.344Z,18.50
2018-05-17T02:58:08.856Z,19.27
2018-05-17T03:00:36.357Z,22.43
2018-05-17T03:03:03.918Z,25.67
2018-05-17T03:05:31.439Z,26.00
2018-05-17T03:07:58.950Z,23.30
2018-05-17T03:10:27.210Z,25.37
2018-05-17T03:12:54.919Z,23.67
2018-05-17T03:15:22.434Z,21.03
2018-05-17T03:17:49.935Z,20.17
2018-05-17T03:20:17.467Z,20.30
2018-05-17T03:22:45.755Z,18.63
2018-05-17T03:25:14.068Z,17.43
2018-05-17T03:27:42.273Z,16.70
2018-05-17T03:30:09.851Z,19.27
2018-05-17T03:32:38.122Z,18.20
2018-05-17T03:35:06.383Z,17.20
2018-05-17T03:37:33.883Z,19.27
2018-05-17T03:40:01.443Z,17.07
2018-05-17T03:42:29.025Z,18.90
2018-05-17T03:44:56.525Z,19.43
2018-05-17T03:47:24.797Z,19.00
2018-05-17T03:49:52.333Z,18.60
2018-05-17T03:52:19.904Z,20.00
2018-05-17T03:54:47.462Z,19.13
2018-05-17T03:57:15.000Z,20.17
2018-05-17T03:59:42.574Z,20.20
2018-05-17T04:02:21.837Z,21.30
2018-05-17T04:05:01.842Z,19.53
2018-05-17T04:07:29.416Z,21.60
2018-05-17T04:09:56.907Z,19.37
2018-05-17T04:12:25.170Z,23.47
2018-05-17T04:14:52.842Z,22.30
2018-05-17T04:17:21.115Z,21.37
2018-05-17T04:19:49.395Z,23.60
2018-05-17T04:22:17.678Z,23.27
2018-05-17T04:24:46.046Z,25.50
2018-05-17T04:27:14.321Z,25.33
2018-05-17T04:29:41.820Z,24.33
2018-05-17T04:32:09.368Z,26.07
2018-05-17T04:34:43.072Z,26.23
2018-05-17T04:37:10.583Z,27.97
2018-05-17T04:39:38.148Z,28.90
2018-05-17T04:42:05.671Z,26.70
2018-05-17T04:44:33.226Z,26.63
2018-05-17T04:47:00.841Z,26.33
2018-05-17T04:49:28.263Z,25.30
2018-05-17T04:51:58.806Z,24.80
2018-05-17T04:54:26.306Z,26.53
2018-05-17T04:56:53.812Z,27.03
2018-05-17T04:59:21.722Z,25.40
2018-05-17T05:01:49.228Z,25.53
2018-05-17T05:04:16.746Z,23.80
2018-05-17T05:06:44.338Z,24.37
2018-05-17T05:09:11.906Z,23.97
2018-05-17T05:11:40.975Z,26.40
2018-05-17T05:14:08.572Z,25.30
2018-05-17T05:16:36.052Z,25.23
2018-05-17T05:19:03.584Z,23.23
2018-05-17T05:21:31.111Z,22.13
2018-05-17T05:23:58.718Z,21.10
2018-05-17T05:26:27.030Z,22.40
2018-05-17T05:28:54.530Z,24.60
2018-05-17T05:31:22.074Z,24.30
2018-05-17T05:33:49.591Z,25.17
2018-05-17T05:36:17.148Z,24.00
2018-05-17T05:38:44.656Z,25.50
2018-05-17T05:41:15.457Z,27.80
2018-05-17T05:43:43.052Z,26.60
2018-05-17T05:46:10.622Z,26.30
2018-05-17T05:48:38.277Z,28.60
2018-05-17T05:51:05.790Z,30.67
2018-05-17T05:53:33.281Z,28.57
2018-05-17T05:56:00.827Z,30.40
2018-05-17T05:58:28.378Z,30.30
2018-05-17T06:00:55.891Z,27.80
2018-05-17T06:03:27.615Z,27.87
2018-05-17T06:05:55.279Z,29.27
2018-05-17T06:08:22.822Z,29.10
2018-05-17T06:10:50.291Z,28.23
2018-05-17T06:13:17.786Z,31.00
2018-05-17T06:15:46.174Z,31.10
2018-05-17T06:18:13.744Z,31.63
2018-05-17T06:20:41.260Z,33.20
2018-05-17T06:23:08.770Z,32.43
2018-05-17T06:25:36.372Z,32.53
2018-05-17T06:28:03.940Z,34.77
2018-05-17T06:30:31.439Z,37.30
2018-05-17T06:32:58.974Z,34.60
2018-05-17T06:35:26.529Z,32.40
2018-05-17T06:37:55.386Z,33.60
2018-05-17T06:40:22.902Z,32.87
2018-05-17T06:42:50.412Z,34.03
2018-05-17T06:45:17.914Z,33.50
2018-05-17T06:47:45.404Z,33.67
2018-05-17T06:50:12.919Z,33.70
2018-05-17T06:52:40.847Z,29.43
2018-05-17T06:55:08.480Z,31.60
2018-05-17T06:57:35.972Z,31.57
2018-05-17T07:00:03.659Z,30.30
2018-05-17T07:02:31.918Z,31.50
2018-05-17T07:05:00.271Z,31.10
2018-05-17T07:07:27.830Z,28.60
2018-05-17T07:09:55.421Z,29.57
2018-05-17T07:12:23.692Z,28.27
2018-05-17T07:14:51.292Z,29.40
2018-05-17T07:17:18.860Z,27.33
2018-05-17T07:19:46.502Z,27.13
2018-05-17T07:22:14.295Z,25.83
2018-05-17T07:24:41.841Z,26.30
2018-05-17T07:27:09.979Z,22.63
2018-05-17T07:29:39.147Z,24.17
2018-05-17T07:32:06.668Z,22.47
2018-05-17T07:34:34.192Z,23.80
2018-05-17T07:37:01.730Z,22.67
2018-05-17T07:39:30.130Z,22.87
2018-05-17T07:41:58.377Z,21.97
2018-05-17T07:44:26.102Z,21.80
2018-05-17T07:46:53.613Z,22.23
2018-05-17T07:49:21.940Z,23.50
2018-05-17T07:51:49.596Z,23.57
2018-05-17T07:54:18.050Z,22.33
2018-05-17T07:56:45.574Z,22.50
2018-05-17T07:59:13.105Z,22.07
2018-05-17T08:01:40.954Z,23.13
2018-05-17T08:04:08.486Z,22.40
2018-05-17T08:06:36.042Z,23.50
2018-05-17T08:09:03.689Z,21.60
2018-05-17T08:11:31.961Z,23.20
2018-05-17T08:13:59.590Z,23.97
2018-05-17T08:16:27.104Z,22.67
2018-05-17T08:18:54.592Z,25.20
2018-05-17T08:21:22.243Z,25.23
2018-05-17T08:23:49.879Z,25.23
2018-05-17T08:26:18.173Z,25.37
2018-05-17T08:28:45.725Z,25.23
2018-05-17T08:31:13.338Z,24.60
2018-05-17T08:33:40.857Z,26.43
2018-05-17T08:36:08.522Z,25.40
2018-05-17T08:38:36.046Z,23.03
2018-05-17T08:41:03.657Z,20.83
2018-05-17T08:43:31.235Z,21.23
2018-05-17T08:45:58.735Z,20.63
2018-05-17T08:48:26.324Z,21.93
2018-05-17T08:50:53.870Z,19.93
2018-05-17T08:53:21.406Z,20.27
2018-05-17T08:55:48.996Z,19.97
2018-05-17T08:58:16.546Z,18.87
2018-05-17T09:00:44.156Z,18.70
2018-05-17T09:03:11.675Z,17.93
2018-05-17T09:05:39.244Z,16.77
2018-05-17T09:08:06.843Z,15.70
2018-05-17T09:10:34.350Z,17.10
2018-05-17T09:13:01.869Z,17.43
2018-05-17T09:15:30.193Z,15.90
2018-05-17T09:17:57.685Z,18.23
2018-05-17T09:20:26.008Z,17.30
2018-05-17T09:22:53.456Z,20.37
2018-05-17T09:25:21.033Z,18.90
2018-05-17T09:27:48.641Z,19.47
2018-05-17T09:30:16.954Z,18.63
2018-05-17T09:32:44.463Z,18.77
2018-05-17T09:35:11.989Z,17.07
2018-05-17T09:37:39.582Z,17.37
2018-05-17T09:40:07.097Z,17.17
2018-05-17T09:42:34.619Z,18.03
2018-05-17T09:45:02.966Z,17.50
2018-05-17T09:47:30.582Z,16.93
2018-05-17T09:49:58.051Z,17.83
2018-05-17T09:52:25.570Z,17.93
2018-05-17T09:54:53.304Z,16.80
2018-05-17T09:57:20.746Z,18.17
2018-05-17T09:59:48.246Z,16.90
2018-05-17T10:02:15.786Z,17.63
2018-05-17T10:04:43.282Z,18.77
2018-05-17T10:07:10.797Z,18.60
2018-05-17T10:09:38.304Z,17.60
2018-05-17T10:12:05.837Z,17.03
2018-05-17T10:14:34.173Z,20.10
2018-05-17T10:17:02.456Z,17.80
2018-05-17T10:19:30.831Z,19.97
2018-05-17T10:21:58.409Z,19.90
2018-05-17T10:24:26.680Z,19.60
2018-05-17T10:26:54.172Z,20.20
2018-05-17T10:29:21.824Z,21.20
2018-05-17T10:31:49.375Z,21.70
2018-05-17T10:34:17.762Z,21.10
2018-05-17T10:36:46.212Z,22.07
2018-05-17T10:39:13.860Z,20.50
2018-05-17T10:41:41.369Z,20.50
2018-05-17T10:44:08.885Z,21.60
2018-05-17T10:46:36.430Z,21.20
2018-05-17T10:49:04.067Z,19.03
2018-05-17T10:51:31.577Z,19.47
2018-05-17T10:53:59.069Z,19.63
2018-05-17T10:56:26.640Z,19.37
2018-05-17T10:58:54.911Z,20.20
2018-05-17T11:01:22.468Z,21.07
2018-05-17T11:03:49.965Z,18.67
2018-05-17T11:06:17.482Z,18.37
2018-05-17T11:08:45.008Z,18.20
2018-05-17T11:11:13.283Z,18.30
2018-05-17T11:13:41.560Z,17.17
2018-05-17T11:16:09.828Z,17.77
2018-05-17T11:18:37.332Z,15.30
2018-05-17T11:21:04.857Z,16.07
2018-05-17T11:23:33.223Z,16.73
2018-05-17T11:26:00.854Z,15.87
2018-05-17T11:28:28.292Z,15.80
2018-05-17T11:30:55.800Z,15.53
2018-05-17T11:33:24.229Z,16.83
2018-05-17T11:35:51.739Z,15.40
2018-05-17T11:38:20.019Z,16.47
2018-05-17T11:40:47.550Z,16.03
2018-05-17T11:43:15.038Z,15.50
2018-05-17T11:45:43.414Z,15.60
2018-05-17T11:48:10.923Z,15.27
2018-05-17T11:50:38.416Z,15.37
2018-05-17T11:53:06.894Z,16.20
2018-05-17T11:55:35.155Z,16.10
2018-05-17T11:58:02.781Z,19.00
2018-05-17T12:00:30.383Z,19.83
2018-05-17T12:02:57.966Z,18.73
2018-05-17T12:05:25.471Z,19.40
2018-05-17T12:07:52.961Z,19.60
2018-05-17T12:10:20.523Z,18.17
2018-05-17T12:12:48.601Z,18.87
2018-05-17T12:15:16.879Z,17.87
2018-05-17T12:17:45.146Z,18.80
2018-05-17T12:20:13.459Z,18.93
2018-05-17T12:22:41.205Z,63.13
2018-05-17T12:25:10.603Z,19.03
2018-05-17T12:27:38.152Z,18.27
2018-05-17T12:30:06.486Z,21.73
2018-05-17T12:32:34.140Z,19.07
2018-05-17T12:35:02.271Z,21.50
2018-05-17T12:37:30.828Z,22.27
2018-05-17T12:39:58.460Z,23.30
2018-05-17T12:42:25.985Z,21.60
2018-05-17T12:44:53.488Z,23.10
2018-05-17T12:47:21.020Z,22.57
2018-05-17T12:49:48.675Z,22.07
2018-05-17T12:52:16.188Z,21.37
2018-05-17T12:54:43.842Z,19.30
2018-05-17T12:57:11.351Z,19.50
2018-05-17T12:59:38.952Z,19.00
2018-05-17T13:02:06.827Z,19.20
2018-05-17T13:04:34.333Z,22.23
2018-05-17T13:07:01.946Z,18.70
2018-05-17T13:09:30.056Z,18.20
2018-05-17T13:11:57.681Z,20.93
2018-05-17T13:14:25.265Z,22.90
2018-05-17T13:16:52.794Z,20.90
2018-05-17T13:19:21.050Z,22.67
2018-05-17T13:21:48.658Z,21.40
2018-05-17T13:24:16.221Z,21.00
2018-05-17T13:26:43.776Z,23.10
2018-05-17T13:29:11.741Z,24.73
2018-05-17T13:31:40.003Z,24.17
2018-05-17T13:34:07.544Z,24.90
2018-05-17T13:36:35.100Z,24.97
2018-05-17T13:39:02.643Z,23.30
2018-05-17T13:41:30.169Z,24.97
2018-05-17T13:43:57.716Z,25.97
2018-05-17T13:46:25.450Z,26.57
2018-05-17T13:48:52.970Z,26.23
2018-05-17T13:51:20.492Z,25.83
2018-05-17T13:53:48.027Z,25.27
2018-05-17T13:56:16.332Z,27.10
2018-05-17T13:58:43.932Z,26.70
2018-05-17T14:01:11.462Z,24.17
2018-05-17T14:03:39.262Z,24.33
2018-05-17T14:06:06.913Z,25.73
2018-05-17T14:08:34.729Z,26.13
2018-05-17T14:11:02.257Z,27.13
2018-05-17T14:13:29.862Z,24.60
2018-05-17T14:15:57.387Z,25.70
2018-05-17T14:18:25.650Z,24.40
2018-05-17T14:20:53.570Z,23.50
2018-05-17T14:23:21.135Z,21.97
2018-05-17T14:25:48.705Z,23.27
2018-05-17T14:28:16.226Z,24.40
2018-05-17T14:30:43.778Z,23.67
2018-05-17T14:33:12.117Z,23.27
2018-05-17T14:35:39.634Z,23.57
2018-05-17T14:38:07.232Z,23.10
2018-05-17T14:40:34.959Z,24.87
2018-05-17T14:43:02.545Z,24.50
2018-05-17T14:45:30.092Z,24.50
2018-05-17T14:47:57.598Z,23.67
2018-05-17T14:50:25.874Z,20.80
2018-05-17T14:52:54.430Z,19.93
2018-05-17T14:55:21.968Z,22.23
2018-05-17T14:57:49.572Z,22.87
2018-05-17T15:00:17.097Z,22.70
2018-05-17T15:02:45.043Z,22.60
2018-05-17T15:05:12.704Z,21.27
2018-05-17T15:07:40.223Z,21.10
2018-05-17T15:10:08.529Z,21.20
2018-05-17T15:12:36.102Z,20.80
2018-05-17T15:15:03.669Z,20.50
2018-05-17T15:17:31.299Z,22.93
2018-05-17T15:19:58.879Z,22.43
2018-05-17T15:22:26.424Z,24.30
2018-05-17T15:24:54.228Z,23.33
2018-05-17T15:27:21.885Z,19.90
2018-05-17T15:29:49.454Z,20.47
2018-05-17T15:32:16.995Z,20.07
2018-05-17T15:34:44.521Z,19.60
2018-05-17T15:37:12.142Z,19.67
2018-05-17T15:39:39.665Z,20.13
2018-05-17T15:42:07.285Z,20.80
2018-05-17T15:44:34.927Z,20.53
2018-05-17T15:47:03.242Z,19.63
2018-05-17T15:49:31.077Z,23.37
2018-05-17T15:51:59.472Z,21.83
2018-05-17T15:54:27.010Z,22.30
2018-05-17T15:56:55.319Z,23.30
2018-05-17T15:59:22.881Z,25.47
2018-05-17T16:01:50.856Z,20.63
2018-05-17T16:04:18.694Z,19.93
2018-05-17T16:06:47.096Z,21.20
2018-05-17T16:09:14.661Z,22.10
2018-05-17T16:11:42.247Z,21.03
2018-05-17T16:14:09.857Z,22.37
2018-05-17T16:16:37.635Z,20.97
2018-05-17T16:19:05.240Z,21.10
2018-05-17T16:21:33.691Z,21.10
2018-05-17T16:24:02.158Z,20.07
2018-05-17T16:26:29.772Z,20.70
2018-05-17T16:28:57.373Z,21.73
2018-05-17T16:31:24.918Z,22.00
2018-05-17T16:33:53.700Z,20.87
2018-05-17T16:36:21.231Z,22.13
2018-05-17T16:38:48.763Z,20.90
2018-05-17T16:41:16.647Z,23.97
2018-05-17T16:43:44.283Z,25.23
2018-05-17T16:46:11.849Z,23.33
2018-05-17T16:48:39.380Z,22.20
2018-05-17T16:51:06.984Z,19.70
2018-05-17T16:53:35.359Z,21.40
2018-05-17T16:56:02.938Z,21.37
2018-05-17T16:58:31.274Z,22.33
2018-05-17T17:00:58.898Z,21.90
2018-05-17T17:03:26.486Z,21.93
2018-05-17T17:05:54.084Z,23.67
2018-05-17T17:08:21.836Z,21.93
2018-05-17T17:10:49.417Z,21.40
2018-05-17T17:13:17.747Z,21.63
2018-05-17T17:15:45.310Z,21.70
2018-05-17T17:18:12.860Z,23.57
2018-05-17T17:20:40.378Z,24.53
2018-05-17T17:23:08.731Z,24.00
2018-05-17T17:25:36.514Z,23.13
2018-05-17T17:28:04.167Z,22.00
2018-05-17T17:30:31.795Z,23.40
2018-05-17T17:32:59.375Z,21.50
2018-05-17T17:35:27.360Z,21.87
2018-05-17T17:37:55.654Z,22.90
2018-05-17T17:40:29.798Z,22.17
2018-05-17T17:42:57.582Z,23.00
2018-05-17T17:45:25.949Z,24.07
2018-05-17T17:47:53.505Z,25.40
2018-05-17T17:50:21.321Z,22.40
2018-05-17T17:52:49.059Z,21.70
2018-05-17T17:55:21.281Z,22.37
2018-05-17T17:57:48.847Z,22.80
2018-05-17T18:00:16.477Z,22.73
2018-05-17T18:02:44.839Z,22.97
2018-05-17T18:05:12.597Z,22.63
2018-05-17T18:07:41.406Z,25.60
2018-05-17T18:10:09.773Z,23.73
2018-05-17T18:12:38.230Z,22.70
2018-05-17T18:15:05.820Z,22.60
2018-05-17T18:17:34.246Z,21.57
2018-05-17T18:20:01.845Z,23.43
2018-05-17T18:22:30.172Z,22.47
2018-05-17T18:24:57.838Z,21.17
2018-05-17T18:27:25.295Z,22.37
2018-05-17T18:29:52.987Z,23.30
2018-05-17T18:32:20.530Z,21.90
2018-05-17T18:34:48.342Z,20.50
2018-05-17T18:37:16.847Z,21.67
2018-05-17T18:39:45.195Z,21.83
2018-05-17T18:42:13.193Z,23.00
2018-05-17T18:44:41.116Z,21.03
2018-05-17T18:47:08.933Z,23.00
2018-05-17T18:49:36.951Z,23.50
2018-05-17T18:52:04.691Z,22.63
2018-05-17T18:54:32.431Z,24.33
2018-05-17T18:57:00.310Z,24.50
2018-05-17T18:59:28.919Z,24.90
2018-05-17T19:01:57.097Z,23.20
2018-05-17T19:04:24.598Z,24.90
2018-05-17T19:06:52.411Z,24.40
2018-05-17T19:09:19.936Z,25.60
2018-05-17T19:11:47.537Z,25.27
2018-05-17T19:14:15.127Z,25.37
2018-05-17T19:16:42.847Z,24.60
2018-05-17T19:19:10.523Z,25.50
2018-05-17T19:21:39.137Z,25.67
2018-05-17T19:24:06.643Z,23.80
2018-05-17T19:26:34.647Z,24.80
2018-05-17T19:29:02.383Z,25.07
2018-05-17T19:31:30.170Z,23.37
2018-05-17T19:33:58.039Z,24.87
2018-05-17T19:36:25.865Z,25.40
2018-05-17T19:38:53.783Z,24.73
2018-05-17T19:41:21.317Z,24.00
2018-05-17T19:43:49.242Z,25.43
2018-05-17T19:46:17.671Z,25.27
2018-05-17T19:48:46.061Z,25.60
2018-05-17T19:51:13.834Z,25.97
2018-05-17T19:53:42.192Z,24.17
2018-05-17T19:56:12.150Z,25.87
2018-05-17T19:58:39.798Z,24.87
2018-05-17T20:01:07.802Z,22.30
2018-05-17T20:03:36.626Z,24.23
2018-05-17T20:06:04.946Z,23.97
2018-05-17T20:08:32.810Z,23.27
2018-05-17T20:11:00.714Z,23.50
2018-05-17T20:13:29.672Z,23.67
2018-05-17T20:15:57.204Z,22.40
2018-05-17T20:18:24.843Z,22.50
2018-05-17T20:20:52.431Z,23.53
2018-05-17T20:23:20.050Z,23.67
2018-05-17T20:25:47.633Z,21.80
2018-05-17T20:28:16.205Z,21.33
2018-05-17T20:30:43.830Z,22.70
2018-05-17T20:33:11.402Z,23.87
2018-05-17T20:35:39.003Z,25.23
2018-05-17T20:38:06.999Z,22.60
2018-05-17T20:40:35.247Z,23.00
2018-05-17T20:43:03.005Z,21.87
2018-05-17T20:45:31.450Z,22.60
2018-05-17T20:47:59.200Z,22.43
2018-05-17T20:50:28.100Z,22.33
2018-05-17T20:52:55.676Z,22.53
2018-05-17T20:55:23.255Z,22.50
2018-05-17T20:57:51.684Z,22.53
2018-05-17T21:00:19.314Z,22.00
2018-05-17T21:02:46.998Z,22.20
2018-05-17T21:05:14.575Z,23.20
2018-05-17T21:07:42.117Z,23.00
2018-05-17T21:10:09.794Z,24.20
2018-05-17T21:12:37.445Z,22.60
2018-05-17T21:15:05.148Z,22.73
2018-05-17T21:17:33.619Z,22.40
2018-05-17T21:20:01.451Z,22.07
2018-05-17T21:22:29.902Z,22.40
2018-05-17T21:24:57.488Z,24.20
2018-05-17T21:27:25.149Z,22.10
2018-05-17T21:29:52.801Z,21.50
2018-05-17T21:32:20.311Z,20.20
2018-05-17T21:34:48.130Z,22.73
2018-05-17T21:37:15.701Z,21.00
2018-05-17T21:39:43.253Z,21.00
2018-05-17T21:42:10.855Z,22.70
2018-05-17T21:44:39.971Z,22.80
2018-05-17T21:47:07.592Z,23.77
2018-05-17T21:49:35.240Z,21.90
2018-05-17T21:52:02.904Z,22.27
2018-05-17T21:54:30.393Z,21.63
2018-05-17T21:56:58.788Z,21.33
2018-05-17T21:59:26.386Z,22.50
2018-05-17T22:01:54.018Z,23.00
2018-05-17T22:04:21.582Z,21.63
2018-05-17T22:06:49.183Z,21.53
2018-05-17T22:09:16.752Z,21.57
2018-05-17T22:11:45.260Z,23.13
2018-05-17T22:14:13.104Z,22.80
2018-05-17T22:16:40.726Z,23.17
2018-05-17T22:19:08.532Z,23.63
2018-05-17T22:21:37.651Z,24.27
2018-05-17T22:24:06.312Z,21.10
2018-05-17T22:26:34.710Z,22.17
2018-05-17T22:29:03.124Z,24.00
2018-05-17T22:31:30.769Z,24.17
2018-05-17T22:33:58.493Z,23.50
2018-05-17T22:36:26.876Z,22.57
2018-05-17T22:38:55.252Z,22.83
2018-05-17T22:41:23.744Z,25.40
2018-05-17T22:43:52.187Z,22.07
2018-05-17T22:46:19.798Z,22.50
2018-05-17T22:48:47.399Z,24.10
2018-05-17T22:51:14.972Z,22.50
2018-05-17T22:53:42.541Z,23.33
2018-05-17T22:56:10.179Z,21.20
2018-05-17T22:58:38.021Z,23.27
2018-05-17T23:01:05.585Z,23.80
2018-05-17T23:03:33.227Z,23.13
2018-05-17T23:06:01.455Z,24.20
2018-05-17T23:08:30.049Z,23.23
2018-05-17T23:10:58.583Z,23.17
2018-05-17T23:13:26.210Z,22.97
2018-05-17T23:15:53.849Z,23.33
2018-05-17T23:18:22.254Z,25.27
2018-05-17T23:20:50.953Z,24.67
2018-05-17T23:23:18.696Z,23.37
2018-05-17T23:25:46.369Z,23.33
2018-05-17T23:28:15.072Z,23.67
2018-05-17T23:30:42.677Z,20.83
2018-05-17T23:33:11.019Z,24.20
2018-05-17T23:35:38.733Z,24.60
2018-05-17T23:38:07.100Z,22.83
2018-05-17T23:43:52.245Z,22.17
2018-05-17T23:46:20.696Z,23.80
2018-05-17T23:48:48.273Z,21.47
2018-05-17T23:51:15.832Z,24.40
2018-05-17T23:53:43.484Z,22.47
2018-05-17T23:56:11.193Z,22.30
2018-05-17T23:58:38.853Z,21.57
